Time;durP1;ratioP1;P1;durP2;ratioP2;P2;SDS_P1;SDS_P2;PMS_P1;PMS_P2;Temp;Humidity;BMP_temperature;BMP_pressure;BME280_temperature;BME280_humidity;BME280_pressure;Samples;Min_cycle;Max_cycle;Signal;HPM_P1;HPM_P2
2021/04/24 00:00:46;;;;;;;1.58;1.48;;;;;;;3.45;100.00;101051.94;5051756;28;20064;-74
2021/04/24 00:03:50;;;;;;;1.98;1.40;;;;;;;3.48;100.00;101053.13;5040683;28;20068;-76
2021/04/24 00:06:54;;;;;;;2.58;2.38;;;;;;;3.51;100.00;101046.84;5052649;28;20075;-75
2021/04/24 00:09:57;;;;;;;1.60;1.50;;;;;;;3.46;100.00;101058.25;5052334;28;20084;-74
2021/04/24 00:13:03;;;;;;;2.70;1.58;;;;;;;3.44;100.00;101055.91;5052504;28;20060;-74
2021/04/24 00:16:07;;;;;;;0.80;0.80;;;;;;;3.43;100.00;101059.03;5051979;28;20055;-75
2021/04/24 00:19:10;;;;;;;1.33;1.33;;;;;;;3.41;100.00;101056.69;5050440;28;20430;-81
2021/04/24 00:22:13;;;;;;;1.33;1.30;;;;;;;3.47;100.00;101054.28;5052297;28;20068;-77
2021/04/24 00:25:17;;;;;;;1.27;1.27;;;;;;;3.48;100.00;101045.66;5052081;28;20415;-78
2021/04/24 00:28:21;;;;;;;2.00;1.77;;;;;;;3.41;100.00;101044.88;5039672;28;20052;-77
2021/04/24 00:31:25;;;;;;;1.45;1.25;;;;;;;3.36;100.00;101046.06;5052078;28;20059;-75
2021/04/24 00:34:28;;;;;;;1.17;1.17;;;;;;;3.26;100.00;101040.59;5051905;28;20525;-74
2021/04/24 00:37:32;;;;;;;6.22;1.65;;;;;;;3.10;100.00;101040.25;5052286;28;20079;-74
2021/04/24 00:40:36;;;;;;;2.15;1.60;;;;;;;2.94;100.00;101033.19;5052185;28;20057;-76
2021/04/24 00:43:39;;;;;;;1.90;1.70;;;;;;;2.80;100.00;101038.69;5051669;28;20067;-75
2021/04/24 00:46:43;;;;;;;1.63;1.63;;;;;;;2.68;100.00;101030.88;5051936;28;20065;-75
2021/04/24 00:49:47;;;;;;;1.80;1.77;;;;;;;2.60;100.00;101034.78;5050445;28;20128;-75
2021/04/24 00:52:50;;;;;;;1.65;1.48;;;;;;;2.50;100.00;101024.56;5051942;28;20060;-75
2021/04/24 00:55:54;;;;;;;3.17;1.77;;;;;;;2.44;100.00;101028.09;5051618;28;20075;-75
2021/04/24 00:58:57;;;;;;;1.55;1.55;;;;;;;2.41;100.00;101026.91;5050576;28;20059;-75
2021/04/24 01:02:01;;;;;;;1.73;1.60;;;;;;;2.40;100.00;101019.06;5051624;28;20432;-75
2021/04/24 01:05:08;;;;;;;1.65;1.58;;;;;;;2.40;100.00;101019.84;5051465;28;20064;-75
2021/04/24 01:08:12;;;;;;;1.30;1.30;;;;;;;2.40;100.00;101027.31;5051223;28;20060;-75
2021/04/24 01:11:17;;;;;;;1.58;1.52;;;;;;;2.39;100.00;101020.22;5050724;28;20072;-75
2021/04/24 01:14:20;;;;;;;3.13;1.60;;;;;;;2.33;100.00;101022.59;5050897;28;20056;-76
2021/04/24 01:17:24;;;;;;;1.42;1.42;;;;;;;2.36;100.00;101018.28;5051239;28;20107;-76
2021/04/24 01:20:31;;;;;;;1.60;1.60;;;;;;;2.37;100.00;101020.63;5051474;28;20056;-75
2021/04/24 01:23:34;;;;;;;1.50;1.50;;;;;;;2.36;100.00;101021.03;5051241;28;20060;-75
2021/04/24 01:26:38;;;;;;;1.90;1.80;;;;;;;2.31;100.00;101022.19;5051060;28;20525;-75
2021/04/24 01:29:42;;;;;;;1.98;1.83;;;;;;;2.25;100.00;101018.28;5050904;28;20580;-75
2021/04/24 01:32:47;;;;;;;2.17;2.08;;;;;;;2.23;100.00;101004.91;5052389;28;20525;-75
2021/04/24 01:35:51;;;;;;;1.30;1.30;;;;;;;2.22;100.00;101013.53;5070119;28;20414;-75
2021/04/24 01:38:55;;;;;;;3.95;1.40;;;;;;;2.17;100.00;101011.97;5070498;28;20067;-75
2021/04/24 01:41:58;;;;;;;1.90;1.80;;;;;;;2.12;100.00;101025.31;5070774;28;20578;-76
2021/04/24 01:45:03;;;;;;;0.95;0.95;;;;;;;2.05;100.00;101017.84;5065124;28;20052;-76
2021/04/24 01:48:10;;;;;;;1.25;1.25;;;;;;;1.97;100.00;101023.72;5050743;28;20063;-75
2021/04/24 01:51:14;;;;;;;3.53;2.33;;;;;;;1.89;100.00;101031.13;5050026;28;20075;-75
2021/04/24 01:54:18;;;;;;;1.65;1.65;;;;;;;1.80;100.00;101025.22;5049904;28;20064;-75
2021/04/24 01:57:22;;;;;;;1.58;1.58;;;;;;;1.80;100.00;101027.19;5048695;28;20064;-75
2021/04/24 02:00:33;;;;;;;1.70;1.70;;;;;;;1.82;100.00;101028.34;5050213;28;20060;-75
2021/04/24 02:03:38;;;;;;;1.77;1.67;;;;;;;1.85;100.00;101015.81;5050380;28;20064;-75
2021/04/24 02:06:42;;;;;;;1.27;1.27;;;;;;;1.84;100.00;101015.03;5050048;28;20063;-75
2021/04/24 02:09:45;;;;;;;2.45;2.25;;;;;;;1.86;100.00;101017.41;5037335;28;20517;-75
2021/04/24 02:12:50;;;;;;;3.40;1.58;;;;;;;1.84;100.00;101017.00;5049465;28;20060;-76
2021/04/24 02:15:53;;;;;;;1.40;1.30;;;;;;;1.83;100.00;101012.69;5048808;28;20056;-75
2021/04/24 02:18:58;;;;;;;1.65;1.58;;;;;;;1.77;100.00;101030.72;5049664;28;20060;-76
2021/04/24 02:22:01;;;;;;;1.85;1.85;;;;;;;1.66;100.00;101032.63;5049717;28;20068;-76
2021/04/24 02:25:07;;;;;;;3.42;2.40;;;;;;;1.52;100.00;101020.41;5049860;28;20056;-75
2021/04/24 02:28:11;;;;;;;4.57;1.92;;;;;;;1.44;100.00;101027.06;5049746;28;20068;-75
2021/04/24 02:31:14;;;;;;;2.72;2.20;;;;;;;1.40;100.00;101029.00;5037268;28;20060;-76
2021/04/24 02:34:18;;;;;;;1.63;1.63;;;;;;;1.36;100.00;101028.19;5048531;28;20052;-75
2021/04/24 02:37:21;;;;;;;1.92;1.85;;;;;;;1.35;100.00;101037.59;5049856;28;20414;-75
2021/04/24 02:40:25;;;;;;;2.67;2.47;;;;;;;1.31;100.00;101031.28;5049578;28;20064;-75
2021/04/24 02:43:30;;;;;;;2.15;1.83;;;;;;;1.30;100.00;101040.69;5049532;28;20068;-75
2021/04/24 02:46:33;;;;;;;2.28;2.17;;;;;;;1.27;100.00;101035.97;5049634;28;20055;-76
2021/04/24 02:49:37;;;;;;;1.75;1.70;;;;;;;1.25;100.00;101037.53;5049854;28;21079;-75
2021/04/24 02:52:41;;;;;;;1.17;1.17;;;;;;;1.25;100.00;101043.81;5049300;28;20076;-75
2021/04/24 02:55:44;;;;;;;1.70;1.60;;;;;;;1.27;100.00;101037.94;5049572;28;20060;-75
2021/04/24 02:58:48;;;;;;;4.20;1.50;;;;;;;1.24;100.00;101039.47;5036476;28;20059;-75
2021/04/24 03:01:52;;;;;;;1.73;1.63;;;;;;;1.25;100.00;101038.31;5048396;28;20056;-76
2021/04/24 03:04:55;;;;;;;2.78;1.52;;;;;;;1.28;100.00;101045.78;5049159;28;20064;-75
2021/04/24 03:07:59;;;;;;;1.50;1.50;;;;;;;1.23;100.00;101037.94;5049298;28;20537;-76
2021/04/24 03:11:02;;;;;;;0.95;0.95;;;;;;;1.24;100.00;101042.22;5049216;28;20060;-75
2021/04/24 03:14:06;;;;;;;2.05;1.95;;;;;;;1.22;100.00;101044.56;5049619;28;20116;-76
2021/04/24 03:17:10;;;;;;;1.27;1.27;;;;;;;1.20;100.00;101055.13;5049180;28;20068;-75
2021/04/24 03:20:17;;;;;;;1.92;1.88;;;;;;;1.20;100.00;101052.41;5049334;28;20056;-75
2021/04/24 03:23:21;;;;;;;1.48;1.48;;;;;;;1.18;100.00;101038.28;5052616;28;20543;-76
2021/04/24 03:26:24;;;;;;;1.48;1.48;;;;;;;1.14;100.00;101040.22;5052188;28;20056;-76
2021/04/24 03:29:27;;;;;;;1.77;1.77;;;;;;;1.13;100.00;101032.34;5053414;28;20059;-76
2021/04/24 03:32:32;;;;;;;3.15;1.77;;;;;;;1.10;100.00;101042.16;5053505;28;20052;-76
2021/04/24 03:35:36;;;;;;;2.10;1.98;;;;;;;1.01;100.00;101040.91;5053416;28;20103;-77
2021/04/24 03:38:40;;;;;;;7.25;2.10;;;;;;;0.94;100.00;101041.66;5053034;28;20056;-77
2021/04/24 03:41:43;;;;;;;6.07;2.05;;;;;;;0.86;100.00;101040.03;5053472;28;20521;-77
2021/04/24 03:44:47;;;;;;;1.92;1.88;;;;;;;0.76;100.00;101038.78;5052146;28;20052;-77
2021/04/24 03:47:53;;;;;;;2.15;2.05;;;;;;;0.70;100.00;101044.97;5040261;28;20517;-77
2021/04/24 03:50:56;;;;;;;1.60;1.60;;;;;;;0.64;100.00;101035.53;5052786;28;20069;-76
2021/04/24 03:53:59;;;;;;;1.38;1.35;;;;;;;0.62;100.00;101048.84;5052923;28;20104;-76
2021/04/24 03:57:03;;;;;;;2.45;2.33;;;;;;;0.57;100.00;101046.44;5051965;28;20060;-76
2021/04/24 04:00:08;;;;;;;1.50;1.50;;;;;;;0.51;100.00;101047.97;5052561;28;20067;-76
2021/04/24 04:03:12;;;;;;;1.70;1.60;;;;;;;0.47;100.00;101047.94;5052788;28;20430;-75
2021/04/24 04:06:16;;;;;;;2.28;2.17;;;;;;;0.41;100.00;101043.94;5052429;28;20065;-77
2021/04/24 04:09:19;;;;;;;1.80;1.70;;;;;;;0.36;100.00;101049.00;5051325;28;20064;-76
2021/04/24 04:12:23;;;;;;;2.97;2.72;;;;;;;0.35;100.00;101053.69;5052710;28;20064;-77
2021/04/24 04:15:27;;;;;;;2.17;2.08;;;;;;;0.31;100.00;101049.34;5052855;28;20052;-77
2021/04/24 04:18:35;;;;;;;1.42;1.42;;;;;;;0.30;100.00;101050.50;5052123;28;20077;-77
2021/04/24 04:21:39;;;;;;;1.77;1.60;;;;;;;0.24;100.00;101041.06;5052091;28;20427;-77
2021/04/24 04:24:42;;;;;;;1.65;1.63;;;;;;;0.21;100.00;101050.03;5051756;28;20060;-77
2021/04/24 04:27:46;;;;;;;1.45;1.45;;;;;;;0.14;100.00;101050.75;5051946;28;20056;-77
2021/04/24 04:30:52;;;;;;;2.53;2.38;;;;;;;0.11;100.00;101046.00;5051283;28;20060;-77
2021/04/24 04:33:56;;;;;;;1.55;1.55;;;;;;;0.10;100.00;101049.13;5049815;28;20060;-77
2021/04/24 04:37:00;;;;;;;1.98;1.90;;;;;;;0.05;100.00;101058.47;5051514;28;20521;-77
2021/04/24 04:40:05;;;;;;;2.28;2.17;;;;;;;-0.02;100.00;101056.44;5051342;28;20064;-77
2021/04/24 04:43:09;;;;;;;1.70;1.70;;;;;;;-0.04;100.00;101061.50;5051495;28;20064;-77
2021/04/24 04:46:12;;;;;;;3.03;1.42;;;;;;;-0.10;100.00;101065.75;5052122;28;20069;-77
2021/04/24 04:49:16;;;;;;;1.70;1.70;;;;;;;-0.14;100.00;101059.44;5051831;28;20128;-77
2021/04/24 04:52:19;;;;;;;2.13;2.03;;;;;;;-0.15;100.00;101060.59;5050029;28;20079;-77
2021/04/24 04:55:22;;;;;;;2.65;1.90;;;;;;;-0.19;100.00;101070.72;5039266;28;20056;-76
2021/04/24 04:58:26;;;;;;;2.00;1.95;;;;;;;-0.21;100.00;101073.03;5051793;28;20521;-77
2021/04/24 05:01:30;;;;;;;1.85;1.85;;;;;;;-0.27;100.00;101079.22;5052341;28;20064;-75
2021/04/24 05:04:34;;;;;;;3.35;2.33;;;;;;;-0.32;100.00;101072.13;5051401;28;20072;-76
2021/04/24 05:07:37;;;;;;;4.78;1.90;;;;;;;-0.36;100.00;101087.72;5051630;28;20067;-76
2021/04/24 05:10:41;;;;;;;1.90;1.80;;;;;;;-0.37;100.00;101085.38;5051183;28;20080;-76
2021/04/24 05:13:45;;;;;;;2.50;2.38;;;;;;;-0.37;100.00;101091.59;5051010;28;20100;-76
2021/04/24 05:16:48;;;;;;;3.13;3.03;;;;;;;-0.33;100.00;101091.66;5051356;28;20060;-76
2021/04/24 05:19:52;;;;;;;3.10;2.90;;;;;;;-0.35;100.00;101094.78;5051478;28;20063;-76
2021/04/24 05:22:55;;;;;;;2.30;2.28;;;;;;;-0.35;100.00;101091.25;5050134;28;20056;-75
2021/04/24 05:25:58;;;;;;;2.00;1.60;;;;;;;-0.36;100.00;101093.19;5051106;28;20420;-76
2021/04/24 05:29:02;;;;;;;2.42;2.33;;;;;;;-0.34;100.00;101099.06;5050900;28;20633;-77
2021/04/24 05:32:06;;;;;;;3.67;2.90;;;;;;;-0.33;100.00;101108.88;5051105;28;20072;-76
2021/04/24 05:35:11;;;;;;;2.88;2.50;;;;;;;-0.34;100.00;101093.59;5031026;28;20157;-75
2021/04/24 05:38:14;;;;;;;1.85;1.77;;;;;;;-0.34;100.00;101096.34;5031025;28;20533;-77
2021/04/24 05:41:22;;;;;;;2.20;2.17;;;;;;;-0.28;100.00;101099.56;5029937;28;20060;-76
2021/04/24 05:44:25;;;;;;;1.83;1.75;;;;;;;-0.25;100.00;101088.66;5029941;28;20060;-77
2021/04/24 05:47:28;;;;;;;2.17;2.08;;;;;;;-0.23;100.00;101091.00;5031076;28;20426;-77
2021/04/24 05:50:32;;;;;;;1.60;1.60;;;;;;;-0.22;100.00;101104.31;5030013;28;20057;-77
2021/04/24 05:53:36;;;;;;;5.18;2.92;;;;;;;-0.19;100.00;101098.09;5030818;28;20065;-76
2021/04/24 05:56:40;;;;;;;2.05;1.95;;;;;;;-0.16;100.00;101097.34;5029906;28;20084;-76
2021/04/24 05:59:43;;;;;;;1.88;1.83;;;;;;;-0.12;100.00;101098.19;5030610;28;20064;-77
2021/04/24 06:02:48;;;;;;;1.65;1.55;;;;;;;-0.04;100.00;101099.84;5030609;28;20072;-76
2021/04/24 06:05:51;;;;;;;1.75;1.70;;;;;;;0.04;100.00;101106.19;5030421;28;20735;-76
2021/04/24 06:08:55;;;;;;;9.50;2.22;;;;;;;0.14;100.00;101107.47;5030559;28;20427;-76
2021/04/24 06:11:58;;;;;;;1.80;1.75;;;;;;;0.26;100.00;101113.47;5018330;28;20415;-76
2021/04/24 06:15:02;;;;;;;5.22;2.60;;;;;;;0.35;100.00;101102.22;5030333;28;20083;-75
2021/04/24 06:18:06;;;;;;;1.58;1.52;;;;;;;0.47;100.00;101101.97;5030172;28;20073;-77
2021/04/24 06:21:10;;;;;;;1.85;1.83;;;;;;;0.54;100.00;101105.53;5030350;28;20064;-77
2021/04/24 06:24:13;;;;;;;2.28;1.85;;;;;;;0.66;100.00;101115.44;5030220;28;20411;-76
2021/04/24 06:27:16;;;;;;;2.15;2.15;;;;;;;0.81;100.00;101114.41;5029560;28;20069;-76
2021/04/24 06:30:21;;;;;;;5.93;3.25;;;;;;;0.97;100.00;101123.16;5030383;28;20064;-77
2021/04/24 06:33:24;;;;;;;4.80;3.13;;;;;;;1.16;100.00;101130.34;5023254;28;20068;-76
2021/04/24 06:36:28;;;;;;;8.00;2.85;;;;;;;1.30;100.00;101120.25;5049813;28;20419;-75
2021/04/24 06:39:33;;;;;;;1.75;1.75;;;;;;;1.52;100.00;101129.41;5050145;28;20067;-76
2021/04/24 06:42:37;;;;;;;3.50;1.92;;;;;;;1.78;100.00;101126.41;5050110;28;20076;-76
2021/04/24 06:45:41;;;;;;;1.75;1.58;;;;;;;2.01;100.00;101126.16;5049699;28;20076;-77
2021/04/24 06:48:45;;;;;;;2.67;2.22;;;;;;;2.29;100.00;101126.25;5049829;28;20060;-76
2021/04/24 06:51:48;;;;;;;3.67;1.95;;;;;;;2.63;100.00;101127.50;5049289;28;20068;-76
2021/04/24 06:54:52;;;;;;;2.05;1.95;;;;;;;2.96;100.00;101135.38;5051263;28;20056;-76
2021/04/24 06:57:55;;;;;;;8.30;2.03;;;;;;;3.32;100.00;101132.59;5051953;28;20056;-77
2021/04/24 07:00:59;;;;;;;2.83;2.38;;;;;;;3.60;100.00;101127.03;5074314;28;20064;-79
2021/04/24 07:04:03;;;;;;;2.75;1.80;;;;;;;3.88;100.00;101123.44;5074143;28;20059;-78
2021/04/24 07:07:07;;;;;;;1.80;1.70;;;;;;;4.17;100.00;101125.69;5074111;28;20059;-77
2021/04/24 07:10:12;;;;;;;2.13;2.00;;;;;;;4.49;100.00;101114.47;5073646;28;20079;-78
2021/04/24 07:13:15;;;;;;;9.18;4.00;;;;;;;4.79;100.00;101122.13;5073929;28;20079;-78
2021/04/24 07:16:19;;;;;;;9.55;1.88;;;;;;;5.06;100.00;101121.16;5072852;28;20135;-78
2021/04/24 07:19:22;;;;;;;5.68;2.70;;;;;;;5.31;100.00;101109.88;5064364;28;20449;-78
2021/04/24 07:22:26;;;;;;;10.70;1.77;;;;;;;5.58;100.00;101119.09;5053251;28;20064;-78
2021/04/24 07:25:30;;;;;;;2.70;2.05;;;;;;;5.86;100.00;101118.81;5053551;28;20418;-78
2021/04/24 07:28:34;;;;;;;1.65;1.55;;;;;;;6.10;100.00;101114.97;5053535;28;20064;-78
2021/04/24 07:31:38;;;;;;;1.52;1.42;;;;;;;6.36;100.00;101113.44;5053462;28;20072;-77
2021/04/24 07:34:41;;;;;;;2.42;2.15;;;;;;;6.58;100.00;101108.38;5053171;28;20068;-75
2021/04/24 07:37:45;;;;;;;4.72;2.45;;;;;;;6.76;100.00;101108.88;5053026;28;20060;-76
2021/04/24 07:40:49;;;;;;;3.10;2.03;;;;;;;6.93;100.00;101116.09;5053145;28;20060;-77
2021/04/24 07:43:53;;;;;;;5.63;1.60;;;;;;;7.10;100.00;101117.84;5040562;28;20060;-77
2021/04/24 07:46:56;;;;;;;1.80;1.60;;;;;;;7.27;100.00;101116.75;5048224;28;20060;-75
2021/04/24 07:50:00;;;;;;;10.63;1.98;;;;;;;7.44;100.00;101115.66;5053039;28;20076;-76
2021/04/24 07:53:04;;;;;;;1.52;1.42;;;;;;;7.63;100.00;101117.66;5052306;28;20533;-75
2021/04/24 07:56:08;;;;;;;2.65;1.00;;;;;;;7.85;100.00;101118.03;5043034;28;20553;-76
2021/04/24 07:59:12;;;;;;;1.70;1.25;;;;;;;8.08;100.00;101131.03;5058916;28;20060;-77
2021/04/24 08:02:15;;;;;;;5.05;1.42;;;;;;;8.26;100.00;101120.38;5051173;28;20056;-78
2021/04/24 08:05:19;;;;;;;6.40;1.70;;;;;;;8.48;100.00;101115.16;5044278;28;20068;-78
2021/04/24 08:08:23;;;;;;;3.08;1.73;;;;;;;8.68;100.00;101122.25;5052653;28;20064;-79
2021/04/24 08:11:26;;;;;;;3.92;1.83;;;;;;;8.89;100.00;101124.50;5046160;28;20060;-76
2021/04/24 08:14:30;;;;;;;6.65;1.13;;;;;;;9.11;100.00;101116.44;5071165;28;20055;-85
2021/04/24 08:17:33;;;;;;;3.88;1.45;;;;;;;9.33;100.00;101119.47;5073508;28;20063;-75
2021/04/24 08:20:37;;;;;;;2.25;0.57;;;;;;;9.53;100.00;101114.56;5072542;28;20071;-76
2021/04/24 08:23:40;;;;;;;3.53;1.45;;;;;;;9.78;100.00;101126.59;5072580;28;20060;-77
2021/04/24 08:26:44;;;;;;;0.90;0.85;;;;;;;10.13;100.00;101115.69;5067704;28;20091;-77
2021/04/24 08:29:47;;;;;;;2.28;0.77;;;;;;;10.44;100.00;101119.53;5072138;28;20060;-77
2021/04/24 08:32:51;;;;;;;4.35;0.77;;;;;;;10.76;100.00;101119.34;5071902;28;20421;-77
2021/04/24 08:35:55;;;;;;;2.22;1.08;;;;;;;11.00;100.00;101119.78;5072263;28;20120;-77
2021/04/24 08:38:59;;;;;;;5.80;0.73;;;;;;;11.23;100.00;101114.59;5072283;28;20064;-77
2021/04/24 08:42:04;;;;;;;4.32;0.70;;;;;;;11.43;100.00;101117.88;5072961;28;20064;-77
2021/04/24 08:45:17;;;;;;;4.13;1.00;;;;;;;11.57;100.00;101113.84;5065997;28;20056;-78
2021/04/24 08:48:21;;;;;;;5.80;0.40;;;;;;;11.65;100.00;101106.00;5051189;28;20454;-78
2021/04/24 08:51:28;;;;;;;0.20;0.20;;;;;;;11.78;100.00;101107.53;5052044;28;20064;-78
2021/04/24 08:54:31;;;;;;;1.60;0.63;;;;;;;11.90;100.00;101106.69;5052035;28;20060;-78
2021/04/24 08:57:38;;;;;;;8.55;1.02;;;;;;;12.06;100.00;101108.53;5040783;28;20056;-79
2021/04/24 09:00:44;;;;;;;17.08;0.95;;;;;;;12.21;100.00;101105.97;5053513;28;20071;-78
2021/04/24 09:03:48;;;;;;;1.20;0.35;;;;;;;12.33;100.00;101110.69;5052458;28;20057;-79
2021/04/24 09:06:52;;;;;;;2.05;0.43;;;;;;;12.45;100.00;101118.22;5039958;28;20056;-78
2021/04/24 09:09:58;;;;;;;3.45;0.73;;;;;;;12.60;100.00;101108.03;5056799;28;20465;-80
2021/04/24 09:13:01;;;;;;;1.77;0.68;;;;;;;12.71;100.00;101114.00;5052240;28;20064;-79
2021/04/24 09:16:05;;;;;;;2.92;0.73;;;;;;;12.95;100.00;101120.59;5053246;28;20059;-79
2021/04/24 09:19:28;;;;;;;0.57;0.32;;;;;;;13.20;100.00;101117.59;5053288;28;20068;-79
2021/04/24 09:22:32;;;;;;;1.30;0.35;;;;;;;13.26;100.00;101121.31;5051721;28;20064;-77
2021/04/24 09:25:35;;;;;;;0.80;0.15;;;;;;;13.27;100.00;101122.91;5051225;28;20064;-78
2021/04/24 09:28:42;;;;;;;1.67;0.50;;;;;;;13.26;100.00;101124.13;5051277;28;20068;-77
2021/04/24 09:31:46;;;;;;;1.98;0.40;;;;;;;13.09;100.00;101125.63;5049682;28;20974;-79
2021/04/24 09:34:52;;;;;;;6.35;0.60;;;;;;;13.05;100.00;101132.63;5051184;28;20060;-78
2021/04/24 09:38:02;;;;;;;2.47;0.30;;;;;;;13.14;100.00;101130.63;5051513;28;20060;-78
2021/04/24 09:41:11;;;;;;;0.88;0.30;;;;;;;13.31;100.00;101119.94;5038330;28;20068;-78
2021/04/24 09:44:15;;;;;;;3.35;0.68;;;;;;;13.28;100.00;101118.84;5052089;28;20060;-79
2021/04/24 09:47:18;;;;;;;1.02;0.55;;;;;;;13.49;100.00;101117.19;5029714;28;20064;-79
2021/04/24 09:50:31;;;;;;;1.92;0.75;;;;;;;13.66;100.00;101121.97;5030673;28;20142;-79
2021/04/24 09:53:34;;;;;;;0.63;0.30;;;;;;;13.86;100.00;101115.16;5030850;28;20076;-78
2021/04/24 09:56:38;;;;;;;2.35;0.70;;;;;;;13.95;98.79;101117.94;5041708;28;20076;-78
2021/04/24 09:59:58;;;;;;;1.83;0.50;;;;;;;14.03;96.32;101119.19;5030579;28;20510;-77
2021/04/24 10:03:01;;;;;;;2.10;0.63;;;;;;;14.18;100.00;101118.09;5033176;28;20082;-81
2021/04/24 10:06:29;;;;;;;1.15;0.68;;;;;;;14.27;97.76;101122.91;5030562;28;20415;-80
2021/04/24 10:09:33;;;;;;;0.55;0.55;;;;;;;14.41;97.08;101125.06;5028862;28;20076;-79
2021/04/24 10:12:37;;;;;;;0.63;0.63;;;;;;;14.64;99.27;101124.34;5031477;28;21122;-78
2021/04/24 10:15:46;;;;;;;1.55;0.65;;;;;;;15.07;99.37;101132.25;5030658;28;20073;-78
2021/04/24 10:18:49;;;;;;;0.73;0.40;;;;;;;15.10;87.97;101128.53;5029759;28;20530;-77
2021/04/24 10:21:52;;;;;;;2.47;0.28;;;;;;;14.86;90.96;101133.31;5029426;28;20072;-77
2021/04/24 10:24:56;;;;;;;1.30;0.45;;;;;;;14.83;91.53;101137.06;5017158;28;20515;-77
2021/04/24 10:28:00;;;;;;;1.67;0.40;;;;;;;14.77;92.77;101130.53;5029688;28;20068;-77
2021/04/24 10:31:04;;;;;;;1.48;0.93;;;;;;;14.71;87.52;101137.25;5017885;28;20092;-77
2021/04/24 10:34:07;;;;;;;1.45;0.43;;;;;;;14.63;87.01;101141.66;5040393;28;20526;-78
2021/04/24 10:37:11;;;;;;;4.13;0.45;;;;;;;14.55;87.86;101146.84;5029957;28;20068;-78
2021/04/24 10:40:15;;;;;;;5.68;0.45;;;;;;;14.55;85.26;101140.44;5030226;28;20077;-78
2021/04/24 10:43:20;;;;;;;0.20;0.13;;;;;;;14.65;90.33;101134.34;5028410;28;20065;-78
2021/04/24 10:46:44;;;;;;;1.88;0.63;;;;;;;14.82;90.13;101143.13;5046559;28;20060;-78
2021/04/24 10:49:56;;;;;;;1.83;0.30;;;;;;;14.83;87.64;101139.88;5049417;28;20052;-78
2021/04/24 10:53:21;;;;;;;3.13;0.20;;;;;;;14.96;88.37;101136.84;5049419;28;20111;-77
2021/04/24 10:56:31;;;;;;;1.85;1.05;;;;;;;15.17;88.73;101142.22;5059780;28;20060;-78
2021/04/24 10:59:34;;;;;;;1.95;0.50;;;;;;;15.08;83.84;101139.44;5049713;28;20060;-77
2021/04/24 11:02:43;;;;;;;0.75;0.20;;;;;;;14.98;84.62;101139.97;5049706;28;20057;-77
2021/04/24 11:05:48;;;;;;;0.30;0.30;;;;;;;15.12;88.47;101140.03;5049213;28;20056;-78
2021/04/24 11:09:18;;;;;;;12.38;1.27;;;;;;;15.32;89.29;101141.47;5049893;28;20062;-77
2021/04/24 11:12:21;;;;;;;0.68;0.28;;;;;;;15.35;87.42;101124.47;5048663;28;20064;-78
2021/04/24 11:15:26;;;;;;;2.38;0.68;;;;;;;15.31;88.89;101129.47;5050533;28;20076;-78
2021/04/24 11:18:33;;;;;;;0.80;0.30;;;;;;;15.40;87.36;101125.88;5050642;28;20060;-78
2021/04/24 11:21:37;;;;;;;3.10;1.08;;;;;;;15.44;87.79;101132.09;5051496;28;20514;-78
2021/04/24 11:24:41;;;;;;;2.15;0.50;;;;;;;15.55;87.95;101121.09;5052034;28;20180;-77
2021/04/24 11:28:08;;;;;;;2.53;0.77;;;;;;;15.68;88.66;101118.81;5051886;28;20056;-78
2021/04/24 11:31:11;;;;;;;3.75;0.85;;;;;;;15.75;85.38;101124.03;5050299;28;20426;-77
2021/04/24 11:34:23;;;;;;;0.73;0.68;;;;;;;15.81;84.72;101133.34;5038715;28;20064;-78
2021/04/24 11:37:27;;;;;;;4.00;0.98;;;;;;;15.85;79.09;101119.91;5050458;28;20068;-78
2021/04/24 11:40:32;;;;;;;0.75;0.50;;;;;;;15.87;77.57;101117.41;5048816;28;20068;-77
2021/04/24 11:43:35;;;;;;;1.67;0.77;;;;;;;15.90;80.38;101124.84;5052464;28;20422;-78
2021/04/24 11:46:39;;;;;;;2.20;0.63;;;;;;;16.08;77.99;101121.88;5052440;28;20068;-77
2021/04/24 11:49:51;;;;;;;1.10;0.77;;;;;;;16.07;78.99;101128.00;5052631;28;20060;-76
2021/04/24 11:52:58;;;;;;;0.90;0.63;;;;;;;15.86;75.49;101124.28;5073885;28;20063;-77
2021/04/24 11:56:01;;;;;;;5.85;0.80;;;;;;;15.51;77.14;101115.66;5061297;28;20071;-78
2021/04/24 11:59:04;;;;;;;4.15;0.80;;;;;;;15.26;81.00;101109.72;5073784;28;20568;-79
2021/04/24 12:02:28;;;;;;;3.85;0.80;;;;;;;15.01;81.45;101106.13;5075213;28;20132;-78
2021/04/24 12:05:31;;;;;;;1.48;0.45;;;;;;;14.80;81.63;101112.00;5072143;28;20064;-78
2021/04/24 12:08:35;;;;;;;2.65;0.63;;;;;;;14.73;85.43;101109.53;5073077;28;20052;-78
2021/04/24 12:11:40;;;;;;;0.85;0.38;;;;;;;14.71;90.17;101112.81;5072760;28;20585;-78
2021/04/24 12:14:44;;;;;;;1.27;0.80;;;;;;;14.91;87.83;101101.81;5072266;28;20719;-78
2021/04/24 12:17:50;;;;;;;3.53;0.88;;;;;;;14.86;85.49;101104.47;5072506;28;20056;-77
2021/04/24 12:20:53;;;;;;;2.85;0.30;;;;;;;14.73;87.77;101103.91;5072279;28;20056;-76
2021/04/24 12:23:56;;;;;;;2.10;1.17;;;;;;;14.57;83.99;101099.47;5072341;28;20059;-80
2021/04/24 12:27:33;;;;;;;6.88;0.80;;;;;;;14.70;89.60;101094.44;5071784;28;20421;-78
2021/04/24 12:30:42;;;;;;;1.67;0.30;;;;;;;14.79;86.92;101094.38;5071911;28;20430;-83
2021/04/24 12:33:46;;;;;;;1.00;0.60;;;;;;;14.82;85.44;101087.03;5074468;28;20063;-87
2021/04/24 12:36:49;;;;;;;2.78;1.02;;;;;;;14.98;89.24;101093.06;5073771;28;20533;-85
2021/04/24 12:40:15;;;;;;;3.70;0.68;;;;;;;15.20;83.08;101085.09;5075750;28;20059;-86
2021/04/24 12:43:23;;;;;;;3.47;0.68;;;;;;;15.26;80.32;101084.47;5065466;28;20521;-82
2021/04/24 12:46:27;;;;;;;2.08;0.95;;;;;;;15.27;79.66;101078.34;5061662;28;20430;-83
2021/04/24 12:49:31;;;;;;;3.28;0.95;;;;;;;15.35;81.37;101070.38;5060931;28;20060;-84
2021/04/24 12:52:53;;;;;;;7.88;1.10;;;;;;;15.43;82.73;101074.34;5043665;28;20079;-82
2021/04/24 12:56:08;;;;;;;3.47;0.82;;;;;;;15.49;82.22;101069.66;5061216;28;20529;-85
2021/04/24 12:59:11;;;;;;;0.93;0.20;;;;;;;15.51;79.78;101064.31;5039279;28;20067;-79
2021/04/24 13:02:31;;;;;;;2.67;0.85;;;;;;;15.51;78.86;101059.50;5052022;28;20052;-77
2021/04/24 13:05:36;;;;;;;3.67;0.93;;;;;;;15.47;75.08;101055.31;5052745;28;20068;-78
2021/04/24 13:08:41;;;;;;;2.40;0.45;;;;;;;15.29;77.83;101058.25;5054658;28;20068;-80
2021/04/24 13:11:45;;;;;;;6.07;0.80;;;;;;;15.51;81.59;101053.09;5040580;28;20059;-82
2021/04/24 13:14:51;;;;;;;1.10;0.43;;;;;;;15.61;80.05;101046.94;5043602;28;20052;-83
2021/04/24 13:17:55;;;;;;;0.30;0.10;;;;;;;15.76;78.27;101047.75;5052155;28;20079;-81
2021/04/24 13:21:21;;;;;;;0.65;0.45;;;;;;;15.86;80.17;101049.19;5050956;28;20525;-84
2021/04/24 13:24:25;;;;;;;3.40;0.35;;;;;;;15.87;74.06;101058.41;5038792;28;20064;-85
2021/04/24 13:27:29;;;;;;;1.65;0.55;;;;;;;15.82;75.31;101051.44;5038511;28;20430;-78
2021/04/24 13:30:41;;;;;;;0.77;0.47;;;;;;;15.89;73.18;101041.84;5051262;28;20525;-78
2021/04/24 13:33:46;;;;;;;0.73;0.40;;;;;;;16.00;78.27;101042.03;5051915;28;20099;-80
2021/04/24 13:37:04;;;;;;;2.30;0.30;;;;;;;16.15;73.72;101034.38;5051014;28;20415;-77
2021/04/24 13:40:08;;;;;;;8.77;1.02;;;;;;;16.19;73.71;101040.59;5050708;28;20601;-81
2021/04/24 13:43:29;;;;;;;1.48;0.30;;;;;;;16.16;68.27;101046.38;5050971;28;20052;-78
2021/04/24 13:46:33;;;;;;;2.55;0.68;;;;;;;16.16;72.37;101041.53;5049875;28;20056;-79
2021/04/24 13:49:41;;;;;;;5.20;0.65;;;;;;;16.25;74.49;101038.63;5049334;28;20422;-79
2021/04/24 13:52:45;;;;;;;2.85;0.70;;;;;;;16.26;75.26;101037.38;5049855;28;20549;-78
2021/04/24 13:55:49;;;;;;;2.75;1.05;;;;;;;16.38;73.32;101036.28;5050549;28;20059;-78
2021/04/24 13:58:52;;;;;;;3.08;0.77;;;;;;;16.49;72.50;101035.69;5049404;28;20529;-77
2021/04/24 14:01:56;;;;;;;2.60;1.05;;;;;;;16.45;67.74;101035.91;5050782;28;20124;-78
2021/04/24 14:04:59;;;;;;;2.30;0.95;;;;;;;16.41;70.05;101045.78;5036886;28;20526;-78
2021/04/24 14:08:03;;;;;;;8.05;1.00;;;;;;;16.42;69.76;101036.88;5050349;28;20060;-77
2021/04/24 14:11:07;;;;;;;3.60;0.35;;;;;;;16.33;69.11;101039.78;5038968;28;20052;-77
2021/04/24 14:14:26;;;;;;;0.68;0.22;;;;;;;16.31;69.43;101028.25;5059943;28;20055;-80
2021/04/24 14:17:30;;;;;;;1.75;0.40;;;;;;;16.25;70.58;101033.00;5070657;28;20064;-79
2021/04/24 14:20:34;;;;;;;1.65;0.90;;;;;;;16.35;73.12;101028.06;5070669;28;20055;-80